Terminal Aerodrome Forecast
Issued by NWS Billings, MT

Home | Current Version | Previous Version | Graphics & Text | Print | Product List | Glossary On
Versions: 1 2 3 4 5 6 7 8 9 10 11 12 13 14
000
FTUS45 KBYZ 231126
TAFMLS
TAF
KMLS 231126Z 2312/2412 04011KT P6SM VCSH BKN050 OVC700
     FM231500 02015G25KT 5SM -RA BR BKN025 OVC030
     FM232300 35015KT 2SM -RA SCT007 OVC015
     FM240500 32011KT 5SM -SHRA BKN020 OVC040
     FM240800 VRB06KT P6SM VCSH SCT030 BKN070=

USA.gov is the U.S. government's official web portal to all federal, state and local government web resources and services.